Saint-Pamphile, Canada
Current Conditions -  °F | °C
As of 2:53 AM on Monday 24 Nov 2014 (Local Time) from KFVE Reporting Station
Overcast Overcast  
Wind Chill: 28°   Ceiling: 3300
Heat Index: 35°   Visibility: 10mi
Dew Point: 32°   Wind: 9mph
Humidity: 89%   Direction: 160°SSE
Pressure: 30.04"   Gusts: NA
Location:  46.95°N, 69.78°W
Report Text: KFVE 240753Z AUTO 16008KT 10SM OVC033 02/00 A3004 RMK AO2 SLP182 T00170000
Loading
Personal Weather Stations






























Interactive Weather Map New forecast layout! Learn more

10-Day Weather Forecast

Advertisements
Track Severe Weather on mobile